Time;durP1;ratioP1;P1;durP2;ratioP2;P2;SDS_P1;SDS_P2;PMS_P1;PMS_P2;Temp;Humidity;BMP_temperature;BMP_pressure;BME280_temperature;BME280_humidity;BME280_pressure;Samples;Min_cycle;Max_cycle;Signal;HPM_P1;HPM_P2
2023/07/28 04:06:52;;;;;;;;;11.00;10.67;;;;;;;;6111703;46;10000989;-52
2023/07/28 04:12:55;;;;;;;;;15.33;12.33;;;;;;;;6490516;39;8905;-51
2023/07/28 04:18:57;;;;;;;;;16.67;15.00;;;;;;;;6489178;46;8873;-55
2023/07/28 05:35:06;;;;;;;;;1.00;1.00;;;;;;;;6492657;31;9156;-52
2023/07/28 05:41:11;;;;;;;;;9.33;9.33;;;;;;;;6489563;31;8927;-54
2023/07/28 05:47:13;;;;;;;;;11.00;11.00;;;;;;;;6489537;39;8966;-51
2023/07/28 05:53:16;;;;;;;;;12.67;12.00;;;;;;;;6488540;31;8882;-55
2023/07/28 05:59:19;;;;;;;;;11.00;11.00;;;;;;;;6488708;46;8898;-53
2023/07/28 06:05:22;;;;;;;;;7.67;7.67;;;;;;;;6489953;47;8964;-53
2023/07/28 06:11:24;;;;;;;;;11.00;10.33;;;;;;;;6489428;31;8962;-55
2023/07/28 06:17:29;;;;;;;;;8.67;8.00;;;;;;;;6488805;39;9519;-53
2023/07/28 06:23:31;;;;;;;;;9.75;8.25;;;;;;;;6488623;39;8923;-57
2023/07/28 06:29:34;;;;;;;;;6.75;6.75;;;;;;;;6488296;39;8958;-54
2023/07/28 06:35:36;;;;;;;;;11.75;11.75;;;;;;;;6490306;39;8974;-53
2023/07/28 06:41:39;;;;;;;;;11.00;9.50;;;;;;;;6488804;39;8985;-57
2023/07/28 06:47:43;;;;;;;;;24.50;22.50;;;;;;;;6489079;46;9088;-56
2023/07/28 06:53:45;;;;;;;;;6.00;6.00;;;;;;;;6488418;46;8923;-55
2023/07/28 06:59:48;;;;;;;;;18.50;18.50;;;;;;;;6490013;39;9016;-53
2023/07/28 07:05:52;;;;;;;;;23.75;21.75;;;;;;;;6488787;39;8951;-57
2023/07/28 07:11:55;;;;;;;;;13.25;12.00;;;;;;;;6485704;31;8945;-56
2023/07/28 07:17:57;;;;;;;;;10.75;10.75;;;;;;;;6486924;39;8903;-52
2023/07/28 07:23:59;;;;;;;;;36.25;29.75;;;;;;;;6485898;39;9048;-53
2023/07/28 07:30:04;;;;;;;;;8.00;7.00;;;;;;;;6486149;31;8992;-56
2023/07/28 07:36:16;;;;;;;;;6.25;6.25;;;;;;;;6485996;46;8950;-54
2023/07/28 07:42:19;;;;;;;;;21.50;20.75;;;;;;;;6487193;31;8906;-56
2023/07/28 07:48:21;;;;;;;;;13.25;12.50;;;;;;;;6487887;39;8891;-58
2023/07/28 07:54:23;;;;;;;;;30.25;29.25;;;;;;;;6486831;39;8949;-53
2023/07/28 08:00:26;;;;;;;;;9.00;9.00;;;;;;;;6487113;31;9041;-53
2023/07/28 08:06:29;;;;;;;;;11.50;11.50;;;;;;;;6487050;39;8959;-56
2023/07/28 08:12:32;;;;;;;;;22.75;21.75;;;;;;;;6487048;39;8986;-59
2023/07/28 08:18:35;;;;;;;;;37.50;33.25;;;;;;;;6487213;39;8906;-59
2023/07/28 08:24:37;;;;;;;;;10.67;10.67;;;;;;;;6486250;39;8958;-61
2023/07/28 08:30:43;;;;;;;;;16.25;15.50;;;;;;;;6483761;46;9000;-59
2023/07/28 08:36:46;;;;;;;;;6.00;5.25;;;;;;;;6481634;31;8977;-59
2023/07/28 08:42:50;;;;;;;;;6.75;6.00;;;;;;;;6481220;46;8917;-58
2023/07/28 08:48:53;;;;;;;;;7.00;7.00;;;;;;;;6484053;39;8974;-58
2023/07/28 08:54:55;;;;;;;;;6.00;6.00;;;;;;;;6484257;46;8934;-59
2023/07/28 09:01:02;;;;;;;;;8.50;7.75;;;;;;;;6485951;39;8982;-59
2023/07/28 09:07:06;;;;;;;;;9.00;7.75;;;;;;;;6483650;46;9012;-58
2023/07/28 09:13:13;;;;;;;;;14.50;14.50;;;;;;;;6485102;31;8919;-61
2023/07/28 09:19:20;;;;;;;;;51.67;40.67;;;;;;;;6485090;39;8949;-57
2023/07/28 09:25:29;;;;;;;;;9.00;8.00;;;;;;;;6484732;39;8934;-59
2023/07/28 09:31:32;;;;;;;;;9.75;6.75;;;;;;;;6485467;39;8973;-57
2023/07/28 09:37:39;;;;;;;;;7.25;7.25;;;;;;;;6485104;39;8942;-59
2023/07/28 09:43:48;;;;;;;;;33.25;30.25;;;;;;;;6485083;31;9049;-59
2023/07/28 09:49:54;;;;;;;;;65.00;50.33;;;;;;;;6484536;31;8907;-58
2023/07/28 09:55:58;;;;;;;;;6.75;6.50;;;;;;;;6482848;31;9615;-60
2023/07/28 10:02:01;;;;;;;;;5.50;5.00;;;;;;;;6484757;31;8951;-60
2023/07/28 10:08:06;;;;;;;;;4.50;4.50;;;;;;;;6483503;39;9623;-60
2023/07/28 10:14:10;;;;;;;;;9.00;9.00;;;;;;;;6303578;39;10001026;-57
2023/07/28 10:20:29;;;;;;;;;7.75;6.75;;;;;;;;6483595;47;9160;-59
2023/07/28 10:26:44;;;;;;;;;8.00;7.00;;;;;;;;6483379;47;8923;-59
2023/07/28 10:32:52;;;;;;;;;59.00;48.67;;;;;;;;6483845;39;9036;-58
2023/07/28 10:39:03;;;;;;;;;6.00;5.25;;;;;;;;6483942;39;9121;-59
2023/07/28 10:45:09;;;;;;;;;5.00;5.00;;;;;;;;6484891;39;8981;-58
2023/07/28 10:51:31;;;;;;;;;8.00;7.00;;;;;;;;6484460;39;9025;-59
2023/07/28 10:57:36;;;;;;;;;5.50;5.50;;;;;;;;6483608;39;8954;-58
2023/07/28 11:03:40;;;;;;;;;5.25;5.25;;;;;;;;6484377;39;9114;-58
2023/07/28 11:09:43;;;;;;;;;10.50;10.50;;;;;;;;6485384;31;8914;-60
2023/07/28 11:15:46;;;;;;;;;5.00;4.33;;;;;;;;6487952;31;8931;-60
2023/07/28 11:21:51;;;;;;;;;3.75;3.75;;;;;;;;6486955;39;9032;-59
2023/07/28 11:27:57;;;;;;;;;24.75;23.25;;;;;;;;6486485;31;9094;-58
2023/07/28 11:34:00;;;;;;;;;12.75;12.75;;;;;;;;6488728;39;9535;-60
2023/07/28 11:40:06;;;;;;;;;5.75;5.75;;;;;;;;6488089;39;9030;-58
2023/07/28 11:46:37;;;;;;;;;6.00;6.00;;;;;;;;6487486;46;8935;-59
2023/07/28 11:52:40;;;;;;;;;7.25;6.25;;;;;;;;6486586;46;8920;-59
2023/07/28 11:58:42;;;;;;;;;2.50;2.50;;;;;;;;6486282;46;9033;-58
2023/07/28 12:04:47;;;;;;;;;50.00;41.00;;;;;;;;6488560;31;8976;-56
2023/07/28 12:10:56;;;;;;;;;51.75;41.50;;;;;;;;6487081;46;8900;-57
2023/07/28 12:17:03;;;;;;;;;6.75;6.00;;;;;;;;6488200;39;9648;-58
2023/07/28 12:23:09;;;;;;;;;19.75;18.00;;;;;;;;6488262;39;9028;-57
2023/07/28 12:29:14;;;;;;;;;5.50;5.50;;;;;;;;6487883;39;8899;-57
2023/07/28 12:35:34;;;;;;;;;8.50;8.25;;;;;;;;6485694;39;9078;-58
2023/07/28 12:41:39;;;;;;;;;6.00;6.00;;;;;;;;6486680;39;9699;-58
2023/07/28 12:47:44;;;;;;;;;4.50;4.50;;;;;;;;6488107;46;8858;-59
2023/07/28 12:53:48;;;;;;;;;4.50;4.50;;;;;;;;6487804;39;8923;-56
2023/07/28 12:59:50;;;;;;;;;4.75;4.75;;;;;;;;6486390;46;8977;-55
2023/07/28 13:05:55;;;;;;;;;10.75;9.00;;;;;;;;6485404;46;8936;-56
2023/07/28 13:11:58;;;;;;;;;4.50;4.50;;;;;;;;6486958;46;8979;-58
2023/07/28 13:18:03;;;;;;;;;21.50;19.75;;;;;;;;6487353;46;8955;-53
2023/07/28 13:24:06;;;;;;;;;3.75;3.75;;;;;;;;6487233;46;8974;-53
2023/07/28 13:30:11;;;;;;;;;6.25;5.25;;;;;;;;6487611;39;8935;-55
2023/07/28 13:36:14;;;;;;;;;6.75;5.50;;;;;;;;6487861;39;8938;-58
2023/07/28 13:42:28;;;;;;;;;9.67;9.67;;;;;;;;6487099;39;8912;-56
2023/07/28 13:48:31;;;;;;;;;5.75;4.75;;;;;;;;6487579;39;9013;-55
2023/07/28 13:54:53;;;;;;;;;8.00;6.00;;;;;;;;6485079;39;9050;-55
2023/07/28 14:00:58;;;;;;;;;25.25;22.75;;;;;;;;6486376;47;8890;-56
2023/07/28 14:07:00;;;;;;;;;64.67;52.33;;;;;;;;6485067;39;8839;-54
2023/07/28 14:13:03;;;;;;;;;8.25;8.25;;;;;;;;6486318;39;8946;-56
2023/07/28 14:19:08;;;;;;;;;5.00;4.50;;;;;;;;6486437;39;8965;-55
2023/07/28 14:25:12;;;;;;;;;5.25;5.25;;;;;;;;6487274;47;8850;-54
2023/07/28 14:31:14;;;;;;;;;5.75;5.75;;;;;;;;6489252;31;8920;-56
2023/07/28 14:37:16;;;;;;;;;13.50;12.25;;;;;;;;6485855;47;8927;-56
2023/07/28 14:43:20;;;;;;;;;5.25;5.25;;;;;;;;6489394;39;8921;-56
2023/07/28 14:49:22;;;;;;;;;5.00;5.00;;;;;;;;6489354;46;8848;-53
2023/07/28 14:55:26;;;;;;;;;5.25;5.25;;;;;;;;6488646;39;9013;-53
2023/07/28 15:01:29;;;;;;;;;5.50;5.50;;;;;;;;6489665;31;8920;-50
2023/07/28 15:07:33;;;;;;;;;7.25;5.50;;;;;;;;6489659;31;8890;-54
2023/07/28 15:13:36;;;;;;;;;7.00;5.50;;;;;;;;6490095;39;9592;-54
2023/07/28 15:19:41;;;;;;;;;4.00;4.00;;;;;;;;6488437;39;8915;-55
2023/07/28 15:25:45;;;;;;;;;4.25;4.25;;;;;;;;6488995;31;8919;-52
2023/07/28 15:31:48;;;;;;;;;5.25;4.50;;;;;;;;6489124;39;8965;-54
2023/07/28 15:37:50;;;;;;;;;5.00;5.00;;;;;;;;6487944;31;8935;-53
2023/07/28 15:43:52;;;;;;;;;6.00;5.00;;;;;;;;6490065;31;8949;-53
2023/07/28 15:49:56;;;;;;;;;7.75;5.75;;;;;;;;6489907;39;8847;-55
2023/07/28 15:55:58;;;;;;;;;5.50;5.50;;;;;;;;6487817;46;8906;-53
2023/07/28 16:02:01;;;;;;;;;3.50;3.50;;;;;;;;6487689;46;8911;-53
2023/07/28 16:08:05;;;;;;;;;3.25;3.25;;;;;;;;6489125;39;9050;-54
2023/07/28 16:14:08;;;;;;;;;4.75;4.50;;;;;;;;6488884;39;8871;-50
2023/07/28 16:20:12;;;;;;;;;6.25;5.25;;;;;;;;6488227;39;9568;-52
2023/07/28 16:26:14;;;;;;;;;5.00;5.00;;;;;;;;6488411;31;8922;-54
2023/07/28 16:32:17;;;;;;;;;4.75;4.50;;;;;;;;6489725;39;9558;-53
2023/07/28 16:38:23;;;;;;;;;5.00;5.00;;;;;;;;6487357;46;8982;-54
2023/07/28 16:44:26;;;;;;;;;5.75;5.75;;;;;;;;6488421;39;8921;-53
2023/07/28 16:50:28;;;;;;;;;5.50;5.50;;;;;;;;6488329;39;8863;-53
2023/07/28 16:56:31;;;;;;;;;6.50;5.50;;;;;;;;6487484;39;9518;-53
2023/07/28 17:02:33;;;;;;;;;7.00;7.00;;;;;;;;6488842;39;8879;-53
2023/07/28 17:08:37;;;;;;;;;5.25;5.25;;;;;;;;6487679;39;8847;-54
2023/07/28 17:14:40;;;;;;;;;4.75;4.75;;;;;;;;6488447;39;8880;-52
2023/07/28 17:20:42;;;;;;;;;6.75;5.75;;;;;;;;6487699;46;8973;-52
2023/07/28 17:26:44;;;;;;;;;9.50;6.75;;;;;;;;6487609;46;8887;-53
2023/07/28 17:32:47;;;;;;;;;5.00;5.00;;;;;;;;6488348;46;8921;-52
2023/07/28 17:38:50;;;;;;;;;6.25;6.25;;;;;;;;6486592;46;8939;-55
2023/07/28 17:44:53;;;;;;;;;5.00;5.00;;;;;;;;6487306;39;8866;-54
2023/07/28 17:50:56;;;;;;;;;6.50;6.50;;;;;;;;6486964;39;8872;-55
2023/07/28 17:56:59;;;;;;;;;7.00;7.00;;;;;;;;6487034;46;8985;-54
2023/07/28 18:03:02;;;;;;;;;11.00;9.25;;;;;;;;6488272;47;8923;-53
2023/07/28 18:09:06;;;;;;;;;11.25;10.50;;;;;;;;6487102;39;8866;-56
2023/07/28 18:15:10;;;;;;;;;8.00;7.25;;;;;;;;6487405;39;8875;-55
2023/07/28 18:21:12;;;;;;;;;9.25;8.50;;;;;;;;6489798;39;9009;-54
2023/07/28 18:27:14;;;;;;;;;7.00;7.00;;;;;;;;6489758;39;9589;-50
2023/07/28 18:33:19;;;;;;;;;11.00;11.00;;;;;;;;6490255;39;8961;-55
2023/07/28 18:39:22;;;;;;;;;13.25;11.75;;;;;;;;6488604;39;9657;-54
2023/07/28 18:45:25;;;;;;;;;13.00;11.25;;;;;;;;6488878;39;8889;-53
2023/07/28 18:51:29;;;;;;;;;13.00;11.25;;;;;;;;6490119;39;8844;-51
2023/07/28 18:57:33;;;;;;;;;11.00;10.75;;;;;;;;6489888;39;9541;-57
2023/07/28 19:03:36;;;;;;;;;10.25;10.25;;;;;;;;6490003;31;8880;-53
2023/07/28 19:09:40;;;;;;;;;13.00;12.00;;;;;;;;6490598;39;8893;-54
2023/07/28 19:15:42;;;;;;;;;10.50;10.00;;;;;;;;6488618;39;8875;-53
2023/07/28 19:21:52;;;;;;;;;9.75;9.75;;;;;;;;6489974;46;8886;-52
2023/07/28 19:27:55;;;;;;;;;12.00;11.00;;;;;;;;6487700;39;8879;-53
2023/07/28 19:33:58;;;;;;;;;11.00;10.00;;;;;;;;6490390;39;9551;-54
2023/07/28 19:40:02;;;;;;;;;11.25;11.25;;;;;;;;6488957;46;8975;-53
2023/07/28 19:46:04;;;;;;;;;10.25;10.25;;;;;;;;6489840;39;9368;-53
2023/07/28 19:52:07;;;;;;;;;13.75;13.75;;;;;;;;6488662;39;8871;-54
2023/07/28 19:58:11;;;;;;;;;14.75;13.25;;;;;;;;6488325;39;9593;-52
2023/07/28 20:04:13;;;;;;;;;14.75;13.75;;;;;;;;6488073;39;8946;-54
2023/07/28 20:10:16;;;;;;;;;15.75;13.00;;;;;;;;6488652;31;8890;-53
2023/07/28 20:16:18;;;;;;;;;15.00;15.00;;;;;;;;6488821;46;8942;-52
2023/07/28 20:22:22;;;;;;;;;16.00;14.00;;;;;;;;6489228;39;8969;-55
2023/07/28 20:28:25;;;;;;;;;23.75;18.75;;;;;;;;6489351;31;8892;-50
2023/07/28 20:34:28;;;;;;;;;19.75;18.00;;;;;;;;6488028;39;8910;-50
2023/07/28 20:40:31;;;;;;;;;20.67;20.67;;;;;;;;6488098;46;9128;-53
2023/07/28 20:46:34;;;;;;;;;22.67;20.67;;;;;;;;6488421;46;8890;-49
2023/07/28 20:52:37;;;;;;;;;25.33;23.33;;;;;;;;6488192;46;8860;-53
2023/07/28 20:58:40;;;;;;;;;27.25;24.75;;;;;;;;6487775;46;8950;-50
2023/07/28 21:04:43;;;;;;;;;25.00;23.00;;;;;;;;6489859;39;9511;-56
2023/07/28 21:10:46;;;;;;;;;29.00;26.00;;;;;;;;6488258;31;8879;-52
2023/07/28 21:16:48;;;;;;;;;24.75;23.50;;;;;;;;6488966;39;9014;-55
2023/07/28 21:22:51;;;;;;;;;23.00;22.00;;;;;;;;6488332;39;9506;-56
2023/07/28 21:28:53;;;;;;;;;24.75;23.25;;;;;;;;6488255;39;8876;-52
2023/07/28 21:34:56;;;;;;;;;25.50;22.00;;;;;;;;6487510;46;9122;-51
2023/07/28 21:40:58;;;;;;;;;23.00;20.50;;;;;;;;6487671;39;8951;-51
2023/07/28 21:47:01;;;;;;;;;21.75;20.50;;;;;;;;6487571;39;9436;-53
2023/07/28 21:53:03;;;;;;;;;25.75;22.50;;;;;;;;6488094;39;8859;-53
2023/07/28 21:59:05;;;;;;;;;27.67;25.00;;;;;;;;6487886;39;9181;-52
2023/07/28 22:05:09;;;;;;;;;24.67;24.00;;;;;;;;6487936;39;8839;-53
2023/07/28 22:11:12;;;;;;;;;24.67;23.67;;;;;;;;6487179;47;8961;-51
2023/07/28 22:17:15;;;;;;;;;28.33;25.33;;;;;;;;6487769;39;8899;-51
2023/07/28 22:23:18;;;;;;;;;24.00;24.00;;;;;;;;6487417;46;8994;-52
2023/07/28 22:29:21;;;;;;;;;25.33;23.33;;;;;;;;6488369;39;8930;-52
2023/07/28 22:35:24;;;;;;;;;27.67;24.33;;;;;;;;6487770;47;8924;-52
2023/07/28 22:41:26;;;;;;;;;26.00;26.00;;;;;;;;6487012;47;8907;-52
2023/07/28 22:47:28;;;;;;;;;20.33;20.00;;;;;;;;6486494;47;8886;-51
2023/07/28 22:53:31;;;;;;;;;23.33;23.00;;;;;;;;6486629;47;8847;-50
2023/07/28 22:59:33;;;;;;;;;19.50;19.50;;;;;;;;6486995;31;9049;-48
2023/07/28 23:05:37;;;;;;;;;16.67;15.67;;;;;;;;6490105;39;9505;-53
2023/07/28 23:11:40;;;;;;;;;18.00;18.00;;;;;;;;6489073;46;8881;-52
2023/07/28 23:17:43;;;;;;;;;19.00;17.00;;;;;;;;6489246;31;9390;-52
2023/07/28 23:23:45;;;;;;;;;21.00;17.67;;;;;;;;6489324;39;9488;-52
2023/07/28 23:29:47;;;;;;;;;17.67;16.00;;;;;;;;6488995;46;8947;-48
2023/07/28 23:35:50;;;;;;;;;19.67;18.67;;;;;;;;6488449;39;8920;-50
2023/07/28 23:41:53;;;;;;;;;17.00;16.67;;;;;;;;6488354;39;8920;-52
2023/07/28 23:47:55;;;;;;;;;18.00;16.33;;;;;;;;6489228;46;8874;-50
2023/07/28 23:53:57;;;;;;;;;17.33;17.33;;;;;;;;6488863;46;8864;-50
